createdAt,value
2018-04-27T00:01:34.759Z,100309.55
2018-04-27T00:04:02.138Z,100313.92
2018-04-27T00:06:29.523Z,100305.52
2018-04-27T00:08:56.912Z,100304.45
2018-04-27T00:11:24.506Z,100308.31
2018-04-27T00:13:51.892Z,100311.48
2018-04-27T00:16:19.291Z,100306.48
2018-04-27T00:18:46.670Z,100309.64
2018-04-27T00:21:14.066Z,100298.68
2018-04-27T00:23:41.446Z,100296.91
2018-04-27T00:26:08.830Z,100296.70
2018-04-27T00:28:36.215Z,100293.61
2018-04-27T00:31:03.599Z,100291.42
2018-04-27T00:33:30.991Z,100293.86
2018-04-27T00:35:58.370Z,100288.22
2018-04-27T00:38:25.923Z,100284.76
2018-04-27T00:40:53.305Z,100287.62
2018-04-27T00:43:20.698Z,100286.39
2018-04-27T00:45:48.076Z,100285.98
2018-04-27T00:48:15.465Z,100291.88
2018-04-27T00:50:42.857Z,100277.89
2018-04-27T00:53:15.775Z,100276.35
2018-04-27T00:55:43.167Z,100272.48
2018-04-27T00:58:10.551Z,100271.44
2018-04-27T01:00:37.944Z,100271.61
2018-04-27T01:03:05.340Z,100267.22
2018-04-27T01:05:32.728Z,100263.76
2018-04-27T01:08:00.131Z,100270.95
2018-04-27T01:10:27.525Z,100268.67
2018-04-27T01:12:54.907Z,100271.02
2018-04-27T01:15:22.286Z,100266.14
2018-04-27T01:17:49.679Z,100264.79
2018-04-27T01:20:17.061Z,100258.86
2018-04-27T01:22:44.458Z,100261.30
2018-04-27T01:25:11.840Z,100258.23
2018-04-27T01:27:39.227Z,100255.78
2018-04-27T01:30:06.607Z,100251.42
2018-04-27T01:32:33.995Z,100253.20
2018-04-27T01:35:01.375Z,100251.67
2018-04-27T01:37:28.755Z,100247.46
2018-04-27T01:39:56.143Z,100247.95
2018-04-27T01:42:23.530Z,100246.52
2018-04-27T01:44:50.923Z,100243.48
2018-04-27T01:47:18.298Z,100244.91
2018-04-27T01:49:45.683Z,100244.08
2018-04-27T01:52:13.063Z,100241.92
2018-04-27T01:54:40.467Z,100235.95
2018-04-27T01:57:07.856Z,100239.00
2018-04-27T01:59:35.228Z,100231.17
2018-04-27T02:02:02.747Z,100227.48
2018-04-27T02:04:30.133Z,100225.16
2018-04-27T02:06:57.511Z,100232.09
2018-04-27T02:09:24.899Z,100233.22
2018-04-27T02:11:52.284Z,100226.45
2018-04-27T02:14:19.667Z,100224.22
2018-04-27T02:16:47.070Z,100220.06
2018-04-27T02:19:14.462Z,100219.64
2018-04-27T02:21:41.848Z,100214.23
2018-04-27T02:24:09.248Z,100217.44
2018-04-27T02:26:36.723Z,100215.73
2018-04-27T02:29:04.110Z,100211.75
2018-04-27T02:31:31.497Z,100217.81
2018-04-27T02:33:58.878Z,100213.52
2018-04-27T02:36:26.262Z,100217.11
2018-04-27T02:38:53.654Z,100216.80
2018-04-27T02:41:21.043Z,100214.56
2018-04-27T02:43:48.418Z,100216.72
2018-04-27T02:46:15.800Z,100214.20
2018-04-27T02:48:43.216Z,100213.19
2018-04-27T02:51:10.607Z,100209.38
2018-04-27T02:53:37.983Z,100203.65
2018-04-27T02:56:05.367Z,100203.98
2018-04-27T02:58:32.760Z,100192.13
2018-04-27T03:01:00.149Z,100195.41
2018-04-27T03:03:27.527Z,100198.55
2018-04-27T03:05:54.916Z,100192.03
2018-04-27T03:08:22.307Z,100191.34
2018-04-27T03:10:49.691Z,100189.23
2018-04-27T03:13:17.079Z,100188.73
2018-04-27T03:15:44.458Z,100191.30
2018-04-27T03:18:11.852Z,100186.83
2018-04-27T03:20:39.227Z,100186.02
2018-04-27T03:23:06.995Z,100185.31
2018-04-27T03:25:34.367Z,100183.67
2018-04-27T03:28:01.775Z,100181.12
2018-04-27T03:30:29.241Z,100180.30
2018-04-27T03:32:56.614Z,100177.08
2018-04-27T03:35:24.079Z,100167.70
2018-04-27T03:37:51.458Z,100169.06
2018-04-27T03:40:18.846Z,100166.80
2018-04-27T03:42:46.219Z,100162.02
2018-04-27T03:45:13.702Z,100158.53
2018-04-27T03:47:41.078Z,100148.84
2018-04-27T03:50:08.469Z,100155.19
2018-04-27T03:52:35.867Z,100147.14
2018-04-27T03:55:03.243Z,100138.87
2018-04-27T03:57:30.630Z,100137.85
2018-04-27T04:00:09.766Z,100142.25
2018-04-27T04:02:48.786Z,100145.42
2018-04-27T04:05:27.442Z,100143.84
2018-04-27T04:07:54.815Z,100142.21
2018-04-27T04:10:22.203Z,100142.95
2018-04-27T04:12:49.579Z,100137.95
2018-04-27T04:15:16.962Z,100133.09
2018-04-27T04:17:44.443Z,100133.89
2018-04-27T04:20:11.819Z,100131.44
2018-04-27T04:22:39.199Z,100126.92
2018-04-27T04:25:06.579Z,100129.09
2018-04-27T04:27:33.950Z,100124.80
2018-04-27T04:30:01.331Z,100119.91
2018-04-27T04:32:28.725Z,100119.58
2018-04-27T04:34:56.087Z,100113.98
2018-04-27T04:37:23.458Z,100114.89
2018-04-27T04:39:50.839Z,100109.27
2018-04-27T04:42:18.215Z,100110.66
2018-04-27T04:44:45.600Z,100099.02
2018-04-27T04:47:12.971Z,100100.23
2018-04-27T04:49:40.351Z,100091.48
2018-04-27T04:52:07.732Z,100089.48
2018-04-27T04:54:35.119Z,100090.09
2018-04-27T04:57:02.497Z,100086.09
2018-04-27T04:59:29.990Z,100086.64
2018-04-27T05:01:57.382Z,100088.26
2018-04-27T05:04:24.762Z,100090.30
2018-04-27T05:06:52.148Z,100095.08
2018-04-27T05:09:19.523Z,100097.44
2018-04-27T05:11:46.898Z,100094.74
2018-04-27T05:14:14.303Z,100095.25
2018-04-27T05:16:41.690Z,100092.33
2018-04-27T05:19:09.062Z,100091.22
2018-04-27T05:21:36.435Z,100091.22
2018-04-27T05:24:03.814Z,100078.67
2018-04-27T05:26:31.187Z,100087.14
2018-04-27T05:28:58.562Z,100086.56
2018-04-27T05:31:25.942Z,100085.06
2018-04-27T05:33:53.322Z,100085.38
2018-04-27T05:36:20.698Z,100082.73
2018-04-27T05:38:48.482Z,100086.02
2018-04-27T05:41:15.867Z,100078.86
2018-04-27T05:43:43.242Z,100083.39
2018-04-27T05:46:10.627Z,100078.28
2018-04-27T05:48:38.011Z,100079.62
2018-04-27T05:51:05.392Z,100079.40
2018-04-27T05:53:32.767Z,100085.86
2018-04-27T05:56:00.146Z,100072.98
2018-04-27T05:58:27.522Z,100079.41
2018-04-27T06:00:54.930Z,100073.70
2018-04-27T06:03:22.306Z,100068.77
2018-04-27T06:05:49.683Z,100069.91
2018-04-27T06:08:17.067Z,100066.41
2018-04-27T06:10:44.640Z,100071.95
2018-04-27T06:13:12.022Z,100066.60
2018-04-27T06:15:39.402Z,100071.11
2018-04-27T06:18:06.810Z,100063.92
2018-04-27T06:20:34.175Z,100067.30
2018-04-27T06:23:01.559Z,100063.71
2018-04-27T06:25:28.938Z,100066.58
2018-04-27T06:27:56.311Z,100059.90
2018-04-27T06:30:23.699Z,100054.56
2018-04-27T06:32:51.082Z,100055.16
2018-04-27T06:35:18.463Z,100052.57
2018-04-27T06:37:45.848Z,100054.77
2018-04-27T06:40:13.238Z,100053.69
2018-04-27T06:42:40.616Z,100044.50
2018-04-27T06:45:08.007Z,100041.63
2018-04-27T06:47:35.446Z,100041.55
2018-04-27T06:50:02.832Z,100039.38
2018-04-27T06:52:30.206Z,100033.32
2018-04-27T06:54:57.579Z,100036.66
2018-04-27T06:57:24.962Z,100032.16
2018-04-27T06:59:52.338Z,100037.07
2018-04-27T07:02:19.727Z,100043.62
2018-04-27T07:04:47.106Z,100033.34
2018-04-27T07:07:14.906Z,100032.99
2018-04-27T07:09:42.279Z,100035.48
2018-04-27T07:12:09.659Z,100033.91
2018-04-27T07:14:37.051Z,100032.53
2018-04-27T07:17:04.442Z,100018.30
2018-04-27T07:19:31.819Z,100022.02
2018-04-27T07:21:59.203Z,100015.56
2018-04-27T07:24:26.590Z,100013.95
2018-04-27T07:26:53.966Z,100010.30
2018-04-27T07:29:21.351Z,100009.69
2018-04-27T07:31:48.806Z,100002.84
2018-04-27T07:34:16.343Z,99996.17
2018-04-27T07:36:43.626Z,99993.53
2018-04-27T07:39:11.023Z,99996.69
2018-04-27T07:41:38.407Z,99995.05
2018-04-27T07:44:05.792Z,100005.58
2018-04-27T07:46:33.186Z,100008.72
2018-04-27T07:49:00.570Z,100000.18
2018-04-27T07:51:27.963Z,99995.42
2018-04-27T07:53:55.338Z,99999.14
2018-04-27T07:56:23.029Z,99988.83
2018-04-27T07:58:50.407Z,99988.17
2018-04-27T08:01:17.783Z,99983.30
2018-04-27T08:03:45.162Z,99980.78
2018-04-27T08:06:12.547Z,99985.98
2018-04-27T08:08:39.931Z,99981.48
2018-04-27T08:11:07.303Z,99985.41
2018-04-27T08:13:34.695Z,99978.59
2018-04-27T08:16:02.083Z,99971.34
2018-04-27T08:18:29.459Z,99975.87
2018-04-27T08:20:56.843Z,99974.28
2018-04-27T08:23:24.218Z,99977.41
2018-04-27T08:25:51.606Z,99982.04
2018-04-27T08:28:18.990Z,99981.38
2018-04-27T08:30:46.376Z,99980.45
2018-04-27T08:33:13.744Z,99977.87
2018-04-27T08:35:41.123Z,99973.85
2018-04-27T08:38:08.505Z,99965.62
2018-04-27T08:40:35.878Z,99970.83
2018-04-27T08:43:03.275Z,99964.30
2018-04-27T08:45:30.645Z,99971.95
2018-04-27T08:47:58.032Z,99966.66
2018-04-27T08:50:25.493Z,99962.14
2018-04-27T08:52:52.791Z,99957.19
2018-04-27T08:55:20.259Z,99954.18
2018-04-27T08:57:47.645Z,99952.88
2018-04-27T09:00:15.019Z,99952.06
2018-04-27T09:02:42.465Z,99947.72
2018-04-27T09:05:09.766Z,99954.29
2018-04-27T09:07:37.151Z,99941.28
2018-04-27T09:10:04.532Z,99938.84
2018-04-27T09:12:31.904Z,99938.38
2018-04-27T09:14:59.281Z,99927.28
2018-04-27T09:17:26.651Z,99931.15
2018-04-27T09:19:54.035Z,99921.83
2018-04-27T09:22:21.410Z,99918.70
2018-04-27T09:24:48.787Z,99924.98
2018-04-27T09:27:16.162Z,99920.86
2018-04-27T09:29:43.739Z,99918.39
2018-04-27T09:32:11.111Z,99929.07
2018-04-27T09:34:38.488Z,99929.36
2018-04-27T09:37:05.866Z,99925.46
2018-04-27T09:39:33.251Z,99916.58
2018-04-27T09:42:00.631Z,99904.38
2018-04-27T09:44:28.107Z,99904.17
2018-04-27T09:46:55.467Z,99894.25
2018-04-27T09:49:22.990Z,99890.61
2018-04-27T09:51:50.367Z,99883.12
2018-04-27T09:54:17.738Z,99890.01
2018-04-27T09:56:45.125Z,99884.55
2018-04-27T09:59:12.499Z,99879.40
2018-04-27T10:01:39.870Z,99868.70
2018-04-27T10:04:07.247Z,99860.95
2018-04-27T10:06:34.629Z,99858.02
2018-04-27T10:09:01.998Z,99848.72
2018-04-27T10:11:29.382Z,99847.45
2018-04-27T10:13:56.763Z,99843.61
2018-04-27T10:16:24.135Z,99842.53
2018-04-27T10:18:51.516Z,99834.09
2018-04-27T10:21:18.891Z,99840.55
2018-04-27T10:23:46.273Z,99832.39
2018-04-27T10:26:13.651Z,99820.79
2018-04-27T10:28:41.036Z,99812.30
2018-04-27T10:31:08.478Z,99814.77
2018-04-27T10:33:35.871Z,99817.24
2018-04-27T10:36:03.271Z,99803.95
2018-04-27T10:38:30.674Z,99812.22
2018-04-27T10:40:58.159Z,99816.34
2018-04-27T10:43:25.539Z,99816.13
2018-04-27T10:45:52.919Z,99814.81
2018-04-27T10:48:20.295Z,99808.93
2018-04-27T10:50:47.667Z,99801.98
2018-04-27T10:53:15.042Z,99814.56
2018-04-27T10:55:42.423Z,99802.83
2018-04-27T10:58:09.803Z,99797.03
2018-04-27T11:00:37.184Z,99782.71
2018-04-27T11:03:04.558Z,99774.14
2018-04-27T11:05:31.935Z,99768.72
2018-04-27T11:07:59.315Z,99763.02
2018-04-27T11:10:26.695Z,99766.97
2018-04-27T11:12:54.082Z,99769.30
2018-04-27T11:15:21.744Z,99765.98
2018-04-27T11:17:49.126Z,99765.91
2018-04-27T11:20:16.518Z,99767.80
2018-04-27T11:22:43.871Z,99761.58
2018-04-27T11:25:11.251Z,99745.83
2018-04-27T11:27:38.633Z,99743.35
2018-04-27T11:30:06.007Z,99747.56
2018-04-27T11:32:33.391Z,99750.40
2018-04-27T11:35:00.771Z,99751.98
2018-04-27T11:37:28.154Z,99741.56
2018-04-27T11:39:55.536Z,99739.29
2018-04-27T11:42:22.912Z,99726.34
2018-04-27T11:44:50.294Z,99717.63
2018-04-27T11:47:17.679Z,99711.57
2018-04-27T11:49:45.059Z,99703.89
2018-04-27T11:52:12.442Z,99689.37
2018-04-27T11:54:39.827Z,99693.83
2018-04-27T11:57:07.210Z,99695.66
2018-04-27T11:59:34.595Z,99682.57
2018-04-27T12:02:01.973Z,99682.14
2018-04-27T12:04:29.343Z,99669.49
2018-04-27T12:06:56.723Z,99671.50
2018-04-27T12:09:24.100Z,99658.72
2018-04-27T12:11:51.483Z,99647.46
2018-04-27T12:14:18.871Z,99633.79
2018-04-27T12:16:46.254Z,99632.27
2018-04-27T12:19:13.627Z,99627.72
2018-04-27T12:21:41.015Z,99628.84
2018-04-27T12:24:08.398Z,99629.28
2018-04-27T12:26:35.775Z,99620.44
2018-04-27T12:29:03.163Z,99623.52
2018-04-27T12:31:30.747Z,99609.21
2018-04-27T12:33:57.935Z,99602.59
2018-04-27T12:36:26.028Z,99597.87
2018-04-27T12:38:53.419Z,99595.84
2018-04-27T12:41:20.782Z,99592.75
2018-04-27T12:43:48.170Z,99590.91
2018-04-27T12:46:15.556Z,99586.64
2018-04-27T12:48:42.953Z,99581.55
2018-04-27T12:51:10.763Z,99573.31
2018-04-27T12:53:38.143Z,99567.86
2018-04-27T12:56:05.787Z,99555.80
2018-04-27T12:58:33.167Z,99556.67
2018-04-27T13:01:00.554Z,99548.11
2018-04-27T13:03:27.927Z,99539.22
2018-04-27T13:05:55.339Z,99527.89
2018-04-27T13:08:22.834Z,99523.30
2018-04-27T13:10:50.227Z,99512.14
2018-04-27T13:13:17.614Z,99519.95
2018-04-27T13:15:44.991Z,99522.39
2018-04-27T13:18:12.402Z,99524.55
2018-04-27T13:20:39.787Z,99521.31
2018-04-27T13:23:07.175Z,99518.22
2018-04-27T13:25:34.561Z,99523.86
2018-04-27T13:28:01.951Z,99515.34
2018-04-27T13:30:29.378Z,99513.27
2018-04-27T13:32:56.755Z,99505.59
2018-04-27T13:35:24.142Z,99502.41
2018-04-27T13:37:51.523Z,99499.03
2018-04-27T13:40:18.911Z,99502.86
2018-04-27T13:42:46.418Z,99502.44
2018-04-27T13:45:13.720Z,99501.31
2018-04-27T13:47:41.114Z,99501.33
2018-04-27T13:50:08.500Z,99497.87
2018-04-27T13:52:35.883Z,99492.00
2018-04-27T13:55:03.264Z,99492.86
2018-04-27T13:57:32.014Z,99496.83
2018-04-27T13:59:59.498Z,99491.61
2018-04-27T14:02:26.867Z,99483.41
2018-04-27T14:04:54.274Z,99481.40
2018-04-27T14:07:21.683Z,99481.14
2018-04-27T14:09:49.104Z,99476.18
2018-04-27T14:12:16.443Z,99475.07
2018-04-27T14:14:43.888Z,99472.51
2018-04-27T14:17:11.270Z,99464.28
2018-04-27T14:19:38.656Z,99459.31
2018-04-27T14:22:06.031Z,99456.09
2018-04-27T14:24:33.415Z,99441.20
2018-04-27T14:27:00.802Z,99436.43
2018-04-27T14:29:28.187Z,99417.88
2018-04-27T14:31:55.563Z,99415.53
2018-04-27T14:34:23.330Z,99410.56
2018-04-27T14:36:50.715Z,99390.87
2018-04-27T14:39:18.091Z,99390.08
2018-04-27T14:41:45.474Z,99402.41
2018-04-27T14:44:12.858Z,99395.31
2018-04-27T14:46:40.337Z,99388.39
2018-04-27T14:49:07.663Z,99382.88
2018-04-27T14:51:35.048Z,99374.73
2018-04-27T14:54:02.450Z,99370.05
2018-04-27T14:56:29.910Z,99366.16
2018-04-27T14:58:57.299Z,99365.03
2018-04-27T15:01:24.703Z,99365.53
2018-04-27T15:03:52.112Z,99365.62
2018-04-27T15:06:19.487Z,99368.11
2018-04-27T15:08:46.883Z,99372.26
2018-04-27T15:11:14.281Z,99378.69
2018-04-27T15:13:41.660Z,99373.84
2018-04-27T15:16:09.063Z,99376.92
2018-04-27T15:18:36.479Z,99380.09
2018-04-27T15:21:03.879Z,99382.05
2018-04-27T15:23:31.259Z,99384.58
2018-04-27T15:25:58.668Z,99367.20
2018-04-27T15:28:26.063Z,99367.52
2018-04-27T15:30:53.466Z,99368.31
2018-04-27T15:33:20.872Z,99374.27
2018-04-27T15:35:48.253Z,99367.80
2018-04-27T15:38:15.642Z,99361.29
2018-04-27T15:40:43.066Z,99353.50
2018-04-27T15:43:10.471Z,99352.55
2018-04-27T15:45:37.890Z,99348.79
2018-04-27T15:48:05.283Z,99347.56
2018-04-27T15:50:32.667Z,99343.64
2018-04-27T15:53:00.059Z,99342.83
2018-04-27T15:55:27.451Z,99352.18
2018-04-27T15:57:55.042Z,99344.80
2018-04-27T16:00:22.435Z,99341.67
2018-04-27T16:02:49.839Z,99340.34
2018-04-27T16:05:17.202Z,99331.45
2018-04-27T16:07:44.606Z,99337.04
2018-04-27T16:10:11.989Z,99331.16
2018-04-27T16:12:39.367Z,99336.38
2018-04-27T16:15:06.758Z,99342.08
2018-04-27T16:17:34.143Z,99340.98
2018-04-27T16:20:01.543Z,99337.95
2018-04-27T16:22:30.032Z,99336.14
2018-04-27T16:24:58.361Z,99331.27
2018-04-27T16:27:25.743Z,99322.80
2018-04-27T16:29:53.140Z,99326.30
2018-04-27T16:32:20.539Z,99330.09
2018-04-27T16:34:47.948Z,99335.25
2018-04-27T16:37:15.321Z,99331.32
2018-04-27T16:39:42.714Z,99331.55
2018-04-27T16:42:10.094Z,99326.62
2018-04-27T16:44:37.492Z,99322.22
2018-04-27T16:47:04.894Z,99326.16
2018-04-27T16:49:32.283Z,99319.95
2018-04-27T16:52:00.173Z,99324.30
2018-04-27T16:54:27.650Z,99322.03
2018-04-27T16:56:54.937Z,99321.00
2018-04-27T16:59:22.325Z,99312.05
2018-04-27T17:01:49.695Z,99321.21
2018-04-27T17:04:17.078Z,99325.58
2018-04-27T17:06:44.466Z,99317.39
2018-04-27T17:09:11.851Z,99314.17
2018-04-27T17:11:39.223Z,99315.14
2018-04-27T17:14:06.623Z,99313.47
2018-04-27T17:16:34.335Z,99312.67
2018-04-27T17:19:01.714Z,99313.14
2018-04-27T17:21:29.094Z,99304.73
2018-04-27T17:23:56.479Z,99308.09
2018-04-27T17:26:23.864Z,99303.30
2018-04-27T17:28:51.255Z,99311.77
2018-04-27T17:31:18.623Z,99308.78
2018-04-27T17:33:46.035Z,99309.40
2018-04-27T17:36:13.415Z,99310.30
2018-04-27T17:38:40.792Z,99312.77
2018-04-27T17:41:08.174Z,99306.31
2018-04-27T17:43:35.552Z,99311.14
2018-04-27T17:46:02.935Z,99304.45
2018-04-27T17:48:30.316Z,99303.73
2018-04-27T17:50:57.711Z,99304.22
2018-04-27T17:53:25.155Z,99314.88
2018-04-27T17:55:52.467Z,99303.04
2018-04-27T17:58:19.851Z,99296.61
2018-04-27T18:00:47.226Z,99304.42
2018-04-27T18:03:14.778Z,99299.81
2018-04-27T18:05:42.151Z,99305.22
2018-04-27T18:08:09.563Z,99299.75
2018-04-27T18:10:36.934Z,99296.38
2018-04-27T18:13:04.315Z,99300.46
2018-04-27T18:15:31.707Z,99302.66
2018-04-27T18:17:59.087Z,99296.98
2018-04-27T18:20:26.470Z,99296.17
2018-04-27T18:22:53.905Z,99308.20
2018-04-27T18:25:21.315Z,99307.44
2018-04-27T18:27:48.663Z,99310.88
2018-04-27T18:30:15.995Z,99309.92
2018-04-27T18:32:43.464Z,99305.03
2018-04-27T18:35:10.785Z,99317.48
2018-04-27T18:37:38.158Z,99306.03
2018-04-27T18:40:05.534Z,99316.37
2018-04-27T18:42:32.929Z,99314.98
2018-04-27T18:45:00.302Z,99314.16
2018-04-27T18:47:27.687Z,99313.84
2018-04-27T18:49:55.072Z,99310.91
2018-04-27T18:52:22.566Z,99308.16
2018-04-27T18:54:49.962Z,99318.84
2018-04-27T18:57:17.345Z,99310.68
2018-04-27T18:59:45.431Z,99313.19
2018-04-27T19:02:12.814Z,99320.77
2018-04-27T19:04:40.210Z,99314.45
2018-04-27T19:07:07.591Z,99312.70
2018-04-27T19:09:34.990Z,99313.92
2018-04-27T19:12:02.360Z,99324.44
2018-04-27T19:14:29.742Z,99324.20
2018-04-27T19:16:57.577Z,99327.16
2018-04-27T19:19:24.946Z,99321.94
2018-04-27T19:21:52.319Z,99324.66
2018-04-27T19:24:19.698Z,99327.98
2018-04-27T19:26:47.085Z,99326.78
2018-04-27T19:29:14.454Z,99330.17
2018-04-27T19:31:41.839Z,99327.19
2018-04-27T19:34:09.335Z,99333.39
2018-04-27T19:36:36.720Z,99331.08
2018-04-27T19:39:04.095Z,99324.63
2018-04-27T19:41:31.498Z,99330.69
2018-04-27T19:43:58.951Z,99333.79
2018-04-27T19:46:26.326Z,99328.41
2018-04-27T19:48:53.711Z,99325.30
2018-04-27T19:51:21.091Z,99327.85
2018-04-27T19:53:48.486Z,99325.98
2018-04-27T19:56:15.862Z,99326.91
2018-04-27T19:58:43.255Z,99330.55
2018-04-27T20:01:10.623Z,99329.46
2018-04-27T20:03:38.010Z,99324.75
2018-04-27T20:06:05.389Z,99325.98
2018-04-27T20:08:32.808Z,99328.11
2018-04-27T20:11:00.417Z,99327.03
2018-04-27T20:13:27.699Z,99325.98
2018-04-27T20:15:58.775Z,99325.30
2018-04-27T20:18:27.728Z,99321.27
2018-04-27T20:20:55.087Z,99323.14
2018-04-27T20:23:23.062Z,99325.97
2018-04-27T20:25:54.545Z,99329.06
2018-04-27T20:28:21.914Z,99325.59
2018-04-27T20:30:49.294Z,99328.56
2018-04-27T20:33:16.706Z,99322.41
2018-04-27T20:35:44.059Z,99325.77
2018-04-27T20:38:16.102Z,99329.81
2018-04-27T20:40:43.487Z,99328.22
2018-04-27T20:43:11.800Z,99330.35
2018-04-27T20:45:39.179Z,99334.41
2018-04-27T20:48:11.567Z,99337.09
2018-04-27T20:50:38.958Z,99340.28
2018-04-27T20:53:06.344Z,99347.14
2018-04-27T20:55:34.456Z,99346.14
2018-04-27T20:58:01.842Z,99347.74
2018-04-27T21:00:30.148Z,99341.67
2018-04-27T21:02:57.530Z,99348.94
2018-04-27T21:05:24.919Z,99351.46
2018-04-27T21:07:52.306Z,99351.73
2018-04-27T21:10:19.689Z,99345.27
2018-04-27T21:12:47.786Z,99352.80
2018-04-27T21:15:15.225Z,99345.96
2018-04-27T21:17:43.246Z,99353.73
2018-04-27T21:20:10.609Z,99352.83
2018-04-27T21:22:38.579Z,99354.95
2018-04-27T21:25:05.959Z,99356.05
2018-04-27T21:27:33.398Z,99358.99
2018-04-27T21:30:00.869Z,99358.47
2018-04-27T21:32:28.445Z,99359.56
2018-04-27T21:34:55.823Z,99363.47
2018-04-27T21:37:23.207Z,99363.33
2018-04-27T21:39:50.603Z,99363.61
2018-04-27T21:42:20.835Z,99367.50
2018-04-27T21:44:48.818Z,99367.23
2018-04-27T21:47:20.722Z,99370.71
2018-04-27T21:49:48.118Z,99383.09
2018-04-27T21:52:17.075Z,99383.75
2018-04-27T21:54:49.067Z,99386.83
2018-04-27T21:57:17.396Z,99391.39
2018-04-27T21:59:50.630Z,99390.02
2018-04-27T22:02:37.850Z,99393.89
2018-04-27T22:05:07.909Z,99396.12
2018-04-27T22:07:35.298Z,99393.19
2018-04-27T22:10:02.687Z,99396.09
2018-04-27T22:12:44.943Z,99394.59
2018-04-27T22:15:12.334Z,99400.75
2018-04-27T22:17:39.727Z,99401.53
2018-04-27T22:20:26.578Z,99399.85
2018-04-27T22:22:53.977Z,99396.47
2018-04-27T22:25:22.855Z,99411.34
2018-04-27T22:27:50.866Z,99403.41
2018-04-27T22:30:22.144Z,99403.80
2018-04-27T22:32:49.528Z,99402.91
2018-04-27T22:35:22.685Z,99403.92
2018-04-27T22:37:50.810Z,99402.70
2018-04-27T22:40:24.059Z,99409.89
2018-04-27T22:42:53.227Z,99416.27
2018-04-27T22:45:22.427Z,99412.22
2018-04-27T22:51:04.138Z,99416.63
2018-04-27T22:53:33.539Z,99412.98
2018-04-27T22:56:00.956Z,99409.23
2018-04-27T22:58:28.335Z,99407.06
2018-04-27T23:01:04.220Z,99413.09
2018-04-27T23:03:32.987Z,99414.16
2018-04-27T23:06:00.566Z,99414.91
2018-04-27T23:08:27.964Z,99420.69
2018-04-27T23:11:05.258Z,99414.47
2018-04-27T23:13:35.183Z,99412.27
2018-04-27T23:16:03.409Z,99421.61
2018-04-27T23:18:35.275Z,99418.55
2018-04-27T23:21:02.667Z,99414.98
2018-04-27T23:23:30.070Z,99421.64
2018-04-27T23:25:57.462Z,99423.64
2018-04-27T23:28:24.867Z,99422.27
2018-04-27T23:30:52.274Z,99423.50
2018-04-27T23:33:19.680Z,99425.62
2018-04-27T23:35:48.535Z,99420.86
2018-04-27T23:38:15.915Z,99421.74
2018-04-27T23:40:43.890Z,99426.80
2018-04-27T23:43:12.007Z,99431.84
2018-04-27T23:45:39.407Z,99432.87
2018-04-27T23:48:06.805Z,99428.91
2018-04-27T23:50:34.182Z,99433.43
2018-04-27T23:53:02.302Z,99431.44
2018-04-27T23:55:29.691Z,99432.27
2018-04-27T23:57:57.079Z,99434.44
